RKPC/CJU METAR and TAF weather

Enter ICAO airport designator
Station Type Date Time Source
RKPC METAR 2021/05/17 23:00 UTC NOAA

RKPC 172300Z 23005KT 9999 FEW030 BKN130 16/13 Q1011 NOSIG


Station Type Date Time Source
RKPC Decoded METAR 2021/05/17 23:00 UTC NOAA

Cheju International Airport, Korea, South (RKPC) 33-30N 126-30E 28M
May 17, 2021 - 07:00 PM EDT / 2021.05.17 2300 UTC
Wind: from the SW (230 degrees) at 6 MPH (5 KT):0
Visibility: greater than 7 mile(s):0
Sky conditions: mostly cloudy
Temperature: 60 F (16 C)
Dew Point: 55 F (13 C)
Relative Humidity: 82%
Pressure (altimeter): 29.85 in. Hg (1011 hPa)
ob: RKPC 172300Z 23005KT 9999 FEW030 BKN130 16/13 Q1011 NOSIG
cycle: 23

Station Type Date Time Source
RKPC TAF 2021/05/17 18:06 UTC NOAA

TAF TAF RKPC 171700Z 1718/1824 21006KT CAVOK TN13/1718Z TX20/1805Z TN14/1819Z
BECMG 1722/1723 28008KT
BECMG 1812/1813 21006KT 6000 FEW015

Example: see airport list